sensor_id;sensor_type;location;lat;lon;timestamp;pressure;altitude;pressure_sealevel;temperature;humidity
34297;BME280;20564;42.902;25.336;2023-11-19T00:01:07;96929.38;;;2.48;100.00
34297;BME280;20564;42.902;25.336;2023-11-19T00:03:56;96924.28;;;2.46;100.00
34297;BME280;20564;42.902;25.336;2023-11-19T00:06:54;96926.09;;;2.58;100.00
34297;BME280;20564;42.902;25.336;2023-11-19T00:09:44;96919.88;;;2.61;100.00
34297;BME280;20564;42.902;25.336;2023-11-19T00:16:01;96935.34;;;2.62;100.00
34297;BME280;20564;42.902;25.336;2023-11-19T00:19:14;96929.28;;;2.49;100.00
34297;BME280;20564;42.902;25.336;2023-11-19T00:22:38;96918.91;;;2.49;100.00
34297;BME280;20564;42.902;25.336;2023-11-19T00:25:27;96930.19;;;2.48;100.00
34297;BME280;20564;42.902;25.336;2023-11-19T00:28:26;96935.19;;;2.51;100.00
34297;BME280;20564;42.902;25.336;2023-11-19T00:35:30;96930.94;;;2.50;100.00
34297;BME280;20564;42.902;25.336;2023-11-19T00:46:07;96932.41;;;2.54;100.00
34297;BME280;20564;42.902;25.336;2023-11-19T00:48:47;96923.16;;;2.50;100.00
34297;BME280;20564;42.902;25.336;2023-11-19T00:55:25;96919.31;;;2.56;100.00
34297;BME280;20564;42.902;25.336;2023-11-19T01:02:39;96929.50;;;2.59;100.00
34297;BME280;20564;42.902;25.336;2023-11-19T01:06:12;96934.47;;;2.49;100.00
34297;BME280;20564;42.902;25.336;2023-11-19T01:08:53;96939.44;;;2.52;100.00
34297;BME280;20564;42.902;25.336;2023-11-19T01:19:51;96943.00;;;2.51;100.00
34297;BME280;20564;42.902;25.336;2023-11-19T01:22:37;96936.13;;;2.50;100.00
34297;BME280;20564;42.902;25.336;2023-11-19T01:29:18;96946.69;;;2.61;100.00
34297;BME280;20564;42.902;25.336;2023-11-19T01:32:33;96949.59;;;2.57;100.00
34297;BME280;20564;42.902;25.336;2023-11-19T01:35:35;96949.09;;;2.64;100.00
34297;BME280;20564;42.902;25.336;2023-11-19T01:41:44;96946.69;;;2.61;100.00
34297;BME280;20564;42.902;25.336;2023-11-19T01:45:10;96945.03;;;2.60;100.00
34297;BME280;20564;42.902;25.336;2023-11-19T01:55:35;96939.34;;;2.68;100.00
34297;BME280;20564;42.902;25.336;2023-11-19T01:58:31;96937.88;;;2.64;100.00
34297;BME280;20564;42.902;25.336;2023-11-19T02:01:47;96934.06;;;2.55;100.00
34297;BME280;20564;42.902;25.336;2023-11-19T02:05:03;96938.25;;;2.58;100.00
34297;BME280;20564;42.902;25.336;2023-11-19T02:11:54;96935.66;;;2.58;100.00
34297;BME280;20564;42.902;25.336;2023-11-19T02:14:51;96935.75;;;2.56;100.00
34297;BME280;20564;42.902;25.336;2023-11-19T02:17:39;96915.91;;;2.41;100.00
34297;BME280;20564;42.902;25.336;2023-11-19T02:20:44;96935.47;;;2.61;100.00
34297;BME280;20564;42.902;25.336;2023-11-19T02:30:28;96951.59;;;2.66;100.00
34297;BME280;20564;42.902;25.336;2023-11-19T02:33:08;96930.13;;;2.50;100.00
34297;BME280;20564;42.902;25.336;2023-11-19T02:35:54;96941.97;;;2.54;100.00
34297;BME280;20564;42.902;25.336;2023-11-19T02:38:33;96959.09;;;2.71;100.00
34297;BME280;20564;42.902;25.336;2023-11-19T02:41:34;96948.91;;;2.68;100.00
34297;BME280;20564;42.902;25.336;2023-11-19T02:44:18;96952.41;;;2.66;100.00
34297;BME280;20564;42.902;25.336;2023-11-19T02:47:08;96955.38;;;2.75;100.00
34297;BME280;20564;42.902;25.336;2023-11-19T02:53:06;96934.06;;;2.55;100.00
34297;BME280;20564;42.902;25.336;2023-11-19T02:55:48;96973.66;;;2.73;100.00
34297;BME280;20564;42.902;25.336;2023-11-19T02:59:11;96970.34;;;2.71;100.00
34297;BME280;20564;42.902;25.336;2023-11-19T03:02:19;96972.09;;;2.71;100.00
34297;BME280;20564;42.902;25.336;2023-11-19T03:05:37;96971.25;;;2.70;100.00
34297;BME280;20564;42.902;25.336;2023-11-19T03:08:54;96976.34;;;2.72;100.00
34297;BME280;20564;42.902;25.336;2023-11-19T03:12:03;96969.06;;;2.64;100.00
34297;BME280;20564;42.902;25.336;2023-11-19T03:14:59;96972.44;;;2.79;100.00
34297;BME280;20564;42.902;25.336;2023-11-19T03:17:48;96967.16;;;2.66;100.00
34297;BME280;20564;42.902;25.336;2023-11-19T03:20:33;96956.31;;;2.59;100.00
34297;BME280;20564;42.902;25.336;2023-11-19T03:23:45;96969.69;;;2.68;100.00
34297;BME280;20564;42.902;25.336;2023-11-19T03:26:48;96982.88;;;2.64;100.00
34297;BME280;20564;42.902;25.336;2023-11-19T03:30:07;96978.16;;;2.57;100.00
34297;BME280;20564;42.902;25.336;2023-11-19T03:32:53;96957.38;;;2.57;100.00
34297;BME280;20564;42.902;25.336;2023-11-19T03:35:34;96963.41;;;2.57;100.00
34297;BME280;20564;42.902;25.336;2023-11-19T03:38:25;96994.44;;;2.73;100.00
34297;BME280;20564;42.902;25.336;2023-11-19T03:41:28;96982.19;;;2.75;100.00
34297;BME280;20564;42.902;25.336;2023-11-19T03:44:15;96989.88;;;2.77;100.00
34297;BME280;20564;42.902;25.336;2023-11-19T03:47:26;96971.91;;;2.59;100.00
34297;BME280;20564;42.902;25.336;2023-11-19T03:50:22;96968.59;;;2.57;100.00
34297;BME280;20564;42.902;25.336;2023-11-19T03:53:23;96983.06;;;2.61;100.00
34297;BME280;20564;42.902;25.336;2023-11-19T04:00:30;97007.19;;;2.63;100.00
34297;BME280;20564;42.902;25.336;2023-11-19T04:03:37;97026.38;;;2.75;100.00
34297;BME280;20564;42.902;25.336;2023-11-19T04:06:32;97023.19;;;2.84;100.00
34297;BME280;20564;42.902;25.336;2023-11-19T04:09:18;97000.69;;;2.71;100.00
34297;BME280;20564;42.902;25.336;2023-11-19T04:12:16;97031.09;;;2.83;100.00
34297;BME280;20564;42.902;25.336;2023-11-19T04:15:16;97044.81;;;2.85;100.00
34297;BME280;20564;42.902;25.336;2023-11-19T04:18:23;97020.63;;;2.70;100.00
34297;BME280;20564;42.902;25.336;2023-11-19T04:21:37;97030.47;;;2.65;100.00
34297;BME280;20564;42.902;25.336;2023-11-19T04:24:13;97053.53;;;2.84;100.00
34297;BME280;20564;42.902;25.336;2023-11-19T04:26:52;97050.22;;;2.82;100.00
34297;BME280;20564;42.902;25.336;2023-11-19T04:29:48;97062.66;;;2.77;100.00
34297;BME280;20564;42.902;25.336;2023-11-19T04:36:19;97066.84;;;2.79;100.00
34297;BME280;20564;42.902;25.336;2023-11-19T04:38:59;97069.31;;;2.81;100.00
34297;BME280;20564;42.902;25.336;2023-11-19T04:41:59;97066.03;;;2.64;100.00
34297;BME280;20564;42.902;25.336;2023-11-19T04:44:42;97048.13;;;2.60;100.00
34297;BME280;20564;42.902;25.336;2023-11-19T04:47:48;97062.28;;;2.69;100.00
34297;BME280;20564;42.902;25.336;2023-11-19T04:50:22;97092.06;;;2.77;100.00
34297;BME280;20564;42.902;25.336;2023-11-19T04:53:08;97071.94;;;2.66;100.00
34297;BME280;20564;42.902;25.336;2023-11-19T04:56:08;97073.16;;;2.61;100.00
34297;BME280;20564;42.902;25.336;2023-11-19T04:58:48;97099.81;;;2.64;100.00
34297;BME280;20564;42.902;25.336;2023-11-19T05:04:24;97089.41;;;2.64;100.00
34297;BME280;20564;42.902;25.336;2023-11-19T05:06:53;97083.75;;;2.58;100.00
34297;BME280;20564;42.902;25.336;2023-11-19T05:10:03;97097.84;;;2.68;100.00
34297;BME280;20564;42.902;25.336;2023-11-19T05:13:59;97082.63;;;2.62;100.00
34297;BME280;20564;42.902;25.336;2023-11-19T05:16:31;97071.88;;;2.54;100.00
34297;BME280;20564;42.902;25.336;2023-11-19T05:19:19;97088.19;;;2.70;100.00
34297;BME280;20564;42.902;25.336;2023-11-19T05:22:15;97107.50;;;2.66;100.00
34297;BME280;20564;42.902;25.336;2023-11-19T05:24:51;97102.28;;;2.66;100.00
34297;BME280;20564;42.902;25.336;2023-11-19T05:27:46;97100.34;;;2.55;100.00
34297;BME280;20564;42.902;25.336;2023-11-19T05:33:35;97131.63;;;2.68;100.00
34297;BME280;20564;42.902;25.336;2023-11-19T05:36:41;97118.72;;;2.52;100.00
34297;BME280;20564;42.902;25.336;2023-11-19T05:39:39;97122.25;;;2.65;100.00
34297;BME280;20564;42.902;25.336;2023-11-19T05:42:38;97092.94;;;2.49;100.00
34297;BME280;20564;42.902;25.336;2023-11-19T05:48:07;97128.75;;;2.73;100.00
34297;BME280;20564;42.902;25.336;2023-11-19T05:51:02;97120.94;;;2.73;100.00
34297;BME280;20564;42.902;25.336;2023-11-19T05:53:53;97129.56;;;2.73;100.00
34297;BME280;20564;42.902;25.336;2023-11-19T05:56:50;97103.34;;;2.63;100.00
34297;BME280;20564;42.902;25.336;2023-11-19T05:59:42;97132.94;;;2.75;100.00
34297;BME280;20564;42.902;25.336;2023-11-19T06:02:22;97127.63;;;2.77;100.00
34297;BME280;20564;42.902;25.336;2023-11-19T06:05:06;97130.81;;;2.82;100.00
34297;BME280;20564;42.902;25.336;2023-11-19T06:08:26;97132.00;;;2.76;100.00
34297;BME280;20564;42.902;25.336;2023-11-19T06:18:05;97140.97;;;2.85;100.00
34297;BME280;20564;42.902;25.336;2023-11-19T06:20:47;97147.75;;;2.87;100.00
34297;BME280;20564;42.902;25.336;2023-11-19T06:23:28;97117.88;;;2.66;100.00
34297;BME280;20564;42.902;25.336;2023-11-19T06:26:11;97151.78;;;2.93;100.00
34297;BME280;20564;42.902;25.336;2023-11-19T06:29:11;97156.38;;;3.02;100.00
34297;BME280;20564;42.902;25.336;2023-11-19T06:34:47;97130.19;;;3.05;100.00
34297;BME280;20564;42.902;25.336;2023-11-19T06:40:36;97145.69;;;3.21;100.00
34297;BME280;20564;42.902;25.336;2023-11-19T06:43:13;97145.03;;;3.18;100.00
34297;BME280;20564;42.902;25.336;2023-11-19T06:46:17;97161.75;;;3.28;100.00
34297;BME280;20564;42.902;25.336;2023-11-19T06:55:02;97155.56;;;3.43;100.00
34297;BME280;20564;42.902;25.336;2023-11-19T06:57:43;97131.81;;;3.35;100.00
34297;BME280;20564;42.902;25.336;2023-11-19T07:00:29;97148.50;;;3.45;100.00
34297;BME280;20564;42.902;25.336;2023-11-19T07:03:15;97134.97;;;3.40;100.00
34297;BME280;20564;42.902;25.336;2023-11-19T07:06:01;97157.50;;;3.54;100.00
34297;BME280;20564;42.902;25.336;2023-11-19T07:08:44;97154.34;;;3.49;100.00
34297;BME280;20564;42.902;25.336;2023-11-19T07:11:48;97148.22;;;3.50;100.00
34297;BME280;20564;42.902;25.336;2023-11-19T07:14:32;97154.13;;;3.66;100.00
34297;BME280;20564;42.902;25.336;2023-11-19T07:17:13;97160.50;;;3.75;100.00
34297;BME280;20564;42.902;25.336;2023-11-19T07:20:09;97186.28;;;3.92;100.00
34297;BME280;20564;42.902;25.336;2023-11-19T07:22:56;97192.66;;;4.01;100.00
34297;BME280;20564;42.902;25.336;2023-11-19T07:25:50;97188.28;;;4.01;100.00
34297;BME280;20564;42.902;25.336;2023-11-19T07:29:00;97195.44;;;3.98;100.00
34297;BME280;20564;42.902;25.336;2023-11-19T07:32:01;97184.31;;;3.96;100.00
34297;BME280;20564;42.902;25.336;2023-11-19T07:35:22;97198.69;;;4.01;100.00
34297;BME280;20564;42.902;25.336;2023-11-19T07:38:10;97202.81;;;3.91;100.00
34297;BME280;20564;42.902;25.336;2023-11-19T07:41:03;97216.16;;;3.86;100.00
34297;BME280;20564;42.902;25.336;2023-11-19T07:43:59;97209.53;;;3.95;100.00
34297;BME280;20564;42.902;25.336;2023-11-19T07:46:43;97213.19;;;4.05;100.00
34297;BME280;20564;42.902;25.336;2023-11-19T07:49:25;97174.94;;;3.93;100.00
34297;BME280;20564;42.902;25.336;2023-11-19T07:52:06;97197.69;;;4.17;100.00
34297;BME280;20564;42.902;25.336;2023-11-19T07:54:55;97189.47;;;4.23;100.00
34297;BME280;20564;42.902;25.336;2023-11-19T07:57:28;97181.88;;;4.20;100.00
34297;BME280;20564;42.902;25.336;2023-11-19T08:00:43;97203.59;;;4.33;100.00
34297;BME280;20564;42.902;25.336;2023-11-19T08:03:16;97179.19;;;4.34;100.00
34297;BME280;20564;42.902;25.336;2023-11-19T08:09:20;97219.56;;;4.67;100.00
34297;BME280;20564;42.902;25.336;2023-11-19T08:15:23;97204.66;;;4.81;100.00
34297;BME280;20564;42.902;25.336;2023-11-19T08:18:37;97212.72;;;4.91;99.29
34297;BME280;20564;42.902;25.336;2023-11-19T08:21:15;97205.72;;;4.92;100.00
34297;BME280;20564;42.902;25.336;2023-11-19T08:24:14;97207.09;;;4.97;99.95
34297;BME280;20564;42.902;25.336;2023-11-19T08:27:18;97221.97;;;5.21;99.33
34297;BME280;20564;42.902;25.336;2023-11-19T08:30:18;97222.91;;;5.32;100.00
34297;BME280;20564;42.902;25.336;2023-11-19T08:33:11;97219.31;;;5.46;98.04
34297;BME280;20564;42.902;25.336;2023-11-19T08:36:03;97213.00;;;5.25;96.00
34297;BME280;20564;42.902;25.336;2023-11-19T08:41:42;97194.13;;;5.08;97.54
34297;BME280;20564;42.902;25.336;2023-11-19T08:44:29;97208.44;;;5.16;95.97
34297;BME280;20564;42.902;25.336;2023-11-19T08:47:09;97212.56;;;5.18;96.72
34297;BME280;20564;42.902;25.336;2023-11-19T08:56:38;97210.78;;;5.31;93.92
34297;BME280;20564;42.902;25.336;2023-11-19T09:00:09;97209.91;;;5.56;96.99
34297;BME280;20564;42.902;25.336;2023-11-19T09:03:23;97219.88;;;5.75;95.56
34297;BME280;20564;42.902;25.336;2023-11-19T09:06:10;97197.41;;;5.73;94.55
34297;BME280;20564;42.902;25.336;2023-11-19T09:13:17;97202.06;;;5.56;92.01
34297;BME280;20564;42.902;25.336;2023-11-19T09:16:02;97167.25;;;5.32;93.07
34297;BME280;20564;42.902;25.336;2023-11-19T09:18:51;97177.50;;;5.35;91.35
34297;BME280;20564;42.902;25.336;2023-11-19T09:22:21;97171.44;;;5.22;92.49
34297;BME280;20564;42.902;25.336;2023-11-19T09:25:35;97186.34;;;5.32;92.13
34297;BME280;20564;42.902;25.336;2023-11-19T09:28:23;97188.63;;;5.37;92.54
34297;BME280;20564;42.902;25.336;2023-11-19T09:34:29;97175.50;;;5.26;96.14
34297;BME280;20564;42.902;25.336;2023-11-19T09:37:22;97179.16;;;5.36;94.07
34297;BME280;20564;42.902;25.336;2023-11-19T09:40:13;97172.91;;;5.26;93.93
34297;BME280;20564;42.902;25.336;2023-11-19T09:43:09;97178.94;;;5.39;95.44
34297;BME280;20564;42.902;25.336;2023-11-19T09:45:52;97167.06;;;5.35;94.01
34297;BME280;20564;42.902;25.336;2023-11-19T09:48:29;97168.91;;;5.33;94.76
34297;BME280;20564;42.902;25.336;2023-11-19T09:51:51;97166.63;;;5.41;93.28
34297;BME280;20564;42.902;25.336;2023-11-19T09:55:02;97167.81;;;5.48;92.70
34297;BME280;20564;42.902;25.336;2023-11-19T09:57:49;97179.84;;;5.51;91.62
34297;BME280;20564;42.902;25.336;2023-11-19T10:00:34;97180.44;;;5.54;92.75
34297;BME280;20564;42.902;25.336;2023-11-19T10:03:43;97170.97;;;5.53;90.69
34297;BME280;20564;42.902;25.336;2023-11-19T10:06:28;97172.84;;;5.51;91.22
34297;BME280;20564;42.902;25.336;2023-11-19T10:08:59;97171.31;;;5.49;91.76
34297;BME280;20564;42.902;25.336;2023-11-19T10:11:27;97153.56;;;5.41;91.85
34297;BME280;20564;42.902;25.336;2023-11-19T10:14:03;97177.19;;;5.64;92.22
34297;BME280;20564;42.902;25.336;2023-11-19T10:16:52;97176.31;;;5.76;92.21
34297;BME280;20564;42.902;25.336;2023-11-19T10:23:02;97176.66;;;5.95;90.32
34297;BME280;20564;42.902;25.336;2023-11-19T10:26:27;97176.44;;;5.98;90.46
34297;BME280;20564;42.902;25.336;2023-11-19T10:28:46;97156.97;;;6.02;88.71
34297;BME280;20564;42.902;25.336;2023-11-19T10:31:19;97172.06;;;6.34;88.88
34297;BME280;20564;42.902;25.336;2023-11-19T10:37:45;97164.63;;;6.52;77.58
34297;BME280;20564;42.902;25.336;2023-11-19T10:40:44;97167.03;;;6.66;76.42
34297;BME280;20564;42.902;25.336;2023-11-19T10:43:53;97164.06;;;6.60;76.83
34297;BME280;20564;42.902;25.336;2023-11-19T10:46:36;97160.50;;;6.72;76.96
34297;BME280;20564;42.902;25.336;2023-11-19T10:49:09;97167.75;;;6.80;75.11
34297;BME280;20564;42.902;25.336;2023-11-19T10:55:00;97163.09;;;6.61;74.18
34297;BME280;20564;42.902;25.336;2023-11-19T10:57:35;97151.94;;;6.70;75.47
34297;BME280;20564;42.902;25.336;2023-11-19T11:06:49;97169.56;;;6.90;74.87
34297;BME280;20564;42.902;25.336;2023-11-19T11:09:28;97158.50;;;7.09;73.79
34297;BME280;20564;42.902;25.336;2023-11-19T11:12:27;97170.03;;;7.29;72.62
34297;BME280;20564;42.902;25.336;2023-11-19T11:18:59;97159.06;;;7.58;71.46
34297;BME280;20564;42.902;25.336;2023-11-19T12:11:21;97117.16;;;6.23;75.14
34297;BME280;20564;42.902;25.336;2023-11-19T12:15:09;97140.09;;;6.31;76.07
34297;BME280;20564;42.902;25.336;2023-11-19T13:09:48;97042.97;;;7.25;68.84
34297;BME280;20564;42.902;25.336;2023-11-19T13:36:34;97023.84;;;7.13;68.73
34297;BME280;20564;42.902;25.336;2023-11-19T13:48:01;97049.44;;;7.10;70.66
34297;BME280;20564;42.902;25.336;2023-11-19T14:14:29;97019.25;;;6.61;72.49
34297;BME280;20564;42.902;25.336;2023-11-19T14:29:57;97063.94;;;6.58;73.36
34297;BME280;20564;42.902;25.336;2023-11-19T14:36:31;97073.47;;;6.47;76.10
34297;BME280;20564;42.902;25.336;2023-11-19T14:39:28;97088.66;;;6.31;78.90
34297;BME280;20564;42.902;25.336;2023-11-19T14:42:54;97084.38;;;6.19;80.99
34297;BME280;20564;42.902;25.336;2023-11-19T14:45:41;97094.28;;;6.02;82.01
34297;BME280;20564;42.902;25.336;2023-11-19T14:48:53;97082.25;;;5.89;86.13
34297;BME280;20564;42.902;25.336;2023-11-19T14:51:20;97073.72;;;5.74;88.34
34297;BME280;20564;42.902;25.336;2023-11-19T14:53:48;97066.59;;;5.65;85.52
34297;BME280;20564;42.902;25.336;2023-11-19T14:56:27;97078.84;;;5.51;87.20
34297;BME280;20564;42.902;25.336;2023-11-19T14:59:04;97090.53;;;5.35;88.74
34297;BME280;20564;42.902;25.336;2023-11-19T15:01:55;97088.16;;;5.19;89.17
34297;BME280;20564;42.902;25.336;2023-11-19T15:04:30;97092.16;;;5.12;90.64
34297;BME280;20564;42.902;25.336;2023-11-19T15:06:59;97101.59;;;5.01;90.34
34297;BME280;20564;42.902;25.336;2023-11-19T15:09:38;97093.44;;;4.93;91.07
34297;BME280;20564;42.902;25.336;2023-11-19T15:12:19;97084.09;;;4.78;92.04
34297;BME280;20564;42.902;25.336;2023-11-19T15:14:49;97090.78;;;4.69;93.29
34297;BME280;20564;42.902;25.336;2023-11-19T15:17:20;97078.38;;;4.60;93.06
34297;BME280;20564;42.902;25.336;2023-11-19T15:19:53;97081.22;;;4.44;94.09
34297;BME280;20564;42.902;25.336;2023-11-19T15:26:42;97092.03;;;4.13;95.82
34297;BME280;20564;42.902;25.336;2023-11-19T15:37:33;97116.78;;;3.80;98.24
34297;BME280;20564;42.902;25.336;2023-11-19T15:40:18;97117.78;;;3.65;97.94
34297;BME280;20564;42.902;25.336;2023-11-19T15:42:47;97115.22;;;3.50;98.59
34297;BME280;20564;42.902;25.336;2023-11-19T15:52:26;97132.81;;;3.32;99.95
34297;BME280;20564;42.902;25.336;2023-11-19T15:55:01;97138.81;;;3.20;100.00
34297;BME280;20564;42.902;25.336;2023-11-19T16:07:35;97136.91;;;2.81;100.00
34297;BME280;20564;42.902;25.336;2023-11-19T16:21:10;97124.56;;;2.56;100.00
34297;BME280;20564;42.902;25.336;2023-11-19T16:24:13;97123.19;;;2.50;100.00
34297;BME280;20564;42.902;25.336;2023-11-19T16:27:20;97129.31;;;2.49;100.00
34297;BME280;20564;42.902;25.336;2023-11-19T16:37:36;97118.94;;;2.63;100.00
34297;BME280;20564;42.902;25.336;2023-11-19T16:40:24;97136.34;;;2.61;100.00
34297;BME280;20564;42.902;25.336;2023-11-19T16:43:23;97118.72;;;2.66;100.00
34297;BME280;20564;42.902;25.336;2023-11-19T16:53:58;97112.03;;;2.62;100.00
34297;BME280;20564;42.902;25.336;2023-11-19T16:57:12;97100.53;;;2.52;100.00
34297;BME280;20564;42.902;25.336;2023-11-19T17:07:56;97127.44;;;2.51;100.00
34297;BME280;20564;42.902;25.336;2023-11-19T17:11:39;97128.91;;;2.41;100.00
34297;BME280;20564;42.902;25.336;2023-11-19T17:30:03;97134.25;;;2.09;100.00
34297;BME280;20564;42.902;25.336;2023-11-19T17:55:28;97120.16;;;1.53;100.00
34297;BME280;20564;42.902;25.336;2023-11-19T18:02:04;97113.84;;;1.43;100.00
34297;BME280;20564;42.902;25.336;2023-11-19T18:04:57;97112.66;;;1.33;100.00
34297;BME280;20564;42.902;25.336;2023-11-19T18:07:31;97090.59;;;1.26;100.00
34297;BME280;20564;42.902;25.336;2023-11-19T18:18:37;97095.97;;;1.07;100.00
34297;BME280;20564;42.902;25.336;2023-11-19T18:25:39;97106.75;;;0.99;100.00
34297;BME280;20564;42.902;25.336;2023-11-19T18:28:20;97108.75;;;0.94;100.00
34297;BME280;20564;42.902;25.336;2023-11-19T18:30:55;97108.91;;;0.75;100.00
34297;BME280;20564;42.902;25.336;2023-11-19T18:33:31;97111.91;;;0.83;100.00
34297;BME280;20564;42.902;25.336;2023-11-19T18:36:05;97103.13;;;0.70;100.00
34297;BME280;20564;42.902;25.336;2023-11-19T18:42:31;97115.00;;;0.74;100.00
34297;BME280;20564;42.902;25.336;2023-11-19T18:46:01;97107.97;;;0.76;100.00
34297;BME280;20564;42.902;25.336;2023-11-19T18:53:24;97118.97;;;0.48;100.00
34297;BME280;20564;42.902;25.336;2023-11-19T19:00:31;97118.09;;;0.47;100.00
34297;BME280;20564;42.902;25.336;2023-11-19T19:07:11;97125.66;;;0.52;100.00
34297;BME280;20564;42.902;25.336;2023-11-19T19:11:06;97118.97;;;0.48;100.00
34297;BME280;20564;42.902;25.336;2023-11-19T19:13:27;97130.31;;;0.45;100.00
34297;BME280;20564;42.902;25.336;2023-11-19T19:20:35;97130.63;;;0.39;100.00
34297;BME280;20564;42.902;25.336;2023-11-19T19:23:14;97118.22;;;0.29;100.00
34297;BME280;20564;42.902;25.336;2023-11-19T19:26:47;97128.84;;;0.40;100.00
34297;BME280;20564;42.902;25.336;2023-11-19T19:28:58;97122.94;;;0.38;100.00
34297;BME280;20564;42.902;25.336;2023-11-19T19:32:04;97118.75;;;0.35;100.00
34297;BME280;20564;42.902;25.336;2023-11-19T19:38:42;97119.91;;;0.30;100.00
34297;BME280;20564;42.902;25.336;2023-11-19T19:55:24;97111.50;;;0.09;100.00
34297;BME280;20564;42.902;25.336;2023-11-19T19:58:22;97110.81;;;0.05;100.00
34297;BME280;20564;42.902;25.336;2023-11-19T20:01:26;97097.78;;;0.07;100.00
34297;BME280;20564;42.902;25.336;2023-11-19T20:05:01;97107.94;;;-0.06;100.00
34297;BME280;20564;42.902;25.336;2023-11-19T20:08:08;97096.91;;;-0.10;100.00
34297;BME280;20564;42.902;25.336;2023-11-19T20:19:23;97071.41;;;-0.17;100.00
34297;BME280;20564;42.902;25.336;2023-11-19T20:26:06;97083.41;;;-0.34;100.00
34297;BME280;20564;42.902;25.336;2023-11-19T20:28:47;97084.44;;;-0.36;100.00
34297;BME280;20564;42.902;25.336;2023-11-19T20:39:06;97080.91;;;-0.35;100.00
34297;BME280;20564;42.902;25.336;2023-11-19T20:42:07;97092.53;;;-0.44;100.00
34297;BME280;20564;42.902;25.336;2023-11-19T21:11:22;97058.91;;;-0.44;100.00
34297;BME280;20564;42.902;25.336;2023-11-19T21:18:56;97056.91;;;-0.55;100.00
34297;BME280;20564;42.902;25.336;2023-11-19T21:22:10;97067.44;;;-0.59;100.00
34297;BME280;20564;42.902;25.336;2023-11-19T21:38:00;97045.31;;;-0.65;100.00
34297;BME280;20564;42.902;25.336;2023-11-19T21:45:06;97056.25;;;-0.60;100.00
34297;BME280;20564;42.902;25.336;2023-11-19T21:55:24;97052.63;;;-0.56;100.00
34297;BME280;20564;42.902;25.336;2023-11-19T22:01:57;97046.69;;;-0.75;100.00
34297;BME280;20564;42.902;25.336;2023-11-19T22:12:41;97066.53;;;-0.76;100.00
34297;BME280;20564;42.902;25.336;2023-11-19T22:28:40;97042.63;;;-0.81;100.00
34297;BME280;20564;42.902;25.336;2023-11-19T22:31:35;97041.56;;;-0.94;100.00
34297;BME280;20564;42.902;25.336;2023-11-19T22:35:04;97053.44;;;-0.90;100.00
34297;BME280;20564;42.902;25.336;2023-11-19T22:40:47;97048.53;;;-0.96;100.00
34297;BME280;20564;42.902;25.336;2023-11-19T22:44:16;97048.25;;;-0.90;100.00
34297;BME280;20564;42.902;25.336;2023-11-19T22:47:39;97044.75;;;-0.89;100.00
34297;BME280;20564;42.902;25.336;2023-11-19T22:50:19;97042.94;;;-0.87;100.00
34297;BME280;20564;42.902;25.336;2023-11-19T22:53:22;97050.97;;;-0.93;100.00
34297;BME280;20564;42.902;25.336;2023-11-19T23:07:32;97030.81;;;-1.04;100.00
34297;BME280;20564;42.902;25.336;2023-11-19T23:09:59;97032.91;;;-0.93;100.00
34297;BME280;20564;42.902;25.336;2023-11-19T23:12:29;97030.31;;;-0.93;100.00
34297;BME280;20564;42.902;25.336;2023-11-19T23:14:56;97033.81;;;-0.94;100.00
34297;BME280;20564;42.902;25.336;2023-11-19T23:17:26;97022.66;;;-0.94;100.00
34297;BME280;20564;42.902;25.336;2023-11-19T23:19:54;97019.94;;;-0.91;100.00
34297;BME280;20564;42.902;25.336;2023-11-19T23:22:35;97008.44;;;-0.86;100.00
34297;BME280;20564;42.902;25.336;2023-11-19T23:25:03;97010.25;;;-0.88;100.00
34297;BME280;20564;42.902;25.336;2023-11-19T23:27:32;97005.53;;;-0.97;100.00
34297;BME280;20564;42.902;25.336;2023-11-19T23:29:59;97015.88;;;-0.97;100.00
34297;BME280;20564;42.902;25.336;2023-11-19T23:32:26;97017.25;;;-0.90;100.00
34297;BME280;20564;42.902;25.336;2023-11-19T23:34:53;97012.91;;;-0.89;100.00
34297;BME280;20564;42.902;25.336;2023-11-19T23:37:20;97020.00;;;-0.76;100.00
34297;BME280;20564;42.902;25.336;2023-11-19T23:39:47;97009.19;;;-0.66;100.00
34297;BME280;20564;42.902;25.336;2023-11-19T23:42:14;97004.81;;;-0.64;100.00
34297;BME280;20564;42.902;25.336;2023-11-19T23:44:43;97006.03;;;-0.71;100.00
34297;BME280;20564;42.902;25.336;2023-11-19T23:47:09;97005.88;;;-0.68;100.00
34297;BME280;20564;42.902;25.336;2023-11-19T23:49:38;97011.03;;;-0.68;100.00
34297;BME280;20564;42.902;25.336;2023-11-19T23:52:09;97004.56;;;-0.60;100.00
34297;BME280;20564;42.902;25.336;2023-11-19T23:54:36;96996.28;;;-0.49;100.00
34297;BME280;20564;42.902;25.336;2023-11-19T23:57:04;97003.41;;;-0.37;100.00
34297;BME280;20564;42.902;25.336;2023-11-19T23:59:31;97000.38;;;-0.28;100.00
